Time;durP1;ratioP1;P1;durP2;ratioP2;P2;SDS_P1;SDS_P2;PMS_P1;PMS_P2;Temp;Humidity;BMP_temperature;BMP_pressure;BME280_temperature;BME280_humidity;BME280_pressure;Samples;Min_cycle;Max_cycle;Signal;HPM_P1;HPM_P2
2022/01/22 00:02:08;;;;;;;;;13.00;10.25;;;;;-1.52;79.48;99925.00;6298769;20;1840907;-42
2022/01/22 00:04:37;;;;;;;;;10.50;9.75;;;;;-1.34;80.42;99940.66;6330557;20;1831776;-46
2022/01/22 00:07:06;;;;;;;;;13.75;8.00;;;;;-1.58;79.56;99946.09;6330395;20;1831615;-43
2022/01/22 00:09:59;;;;;;;;;11.50;10.50;;;;;-1.16;79.87;99952.78;6330589;20;1833866;-42
2022/01/22 00:15:09;;;;;;;;;7.50;7.50;;;;;-1.31;77.61;99955.56;6300054;20;1820563;-43
2022/01/22 00:17:37;;;;;;;;;10.00;7.00;;;;;-1.62;77.73;99955.81;6312922;20;2767996;-44
2022/01/22 00:20:08;;;;;;;;;10.50;7.00;;;;;-1.37;77.32;99958.22;6299784;20;1827410;-43
2022/01/22 00:22:37;;;;;;;;;10.00;5.00;;;;;-1.39;76.89;99967.91;6313225;20;2775299;-42
2022/01/22 00:25:09;;;;;;;;;10.25;7.00;;;;;-1.55;76.77;99961.91;6326655;20;1833704;-42
2022/01/22 00:27:40;;;;;;;;;7.33;7.33;;;;;-1.48;76.71;99967.97;6311335;20;3464863;-42
2022/01/22 00:30:20;;;;;;;;;12.75;7.00;;;;;-1.50;77.13;99959.22;6298223;20;1826349;-42
2022/01/22 00:32:50;;;;;;;;;6.50;4.75;;;;;-1.35;77.04;99964.34;6327033;20;1828472;-45
2022/01/22 00:35:21;;;;;;;;;11.50;7.00;;;;;-1.46;76.50;99966.22;6310421;20;2771242;-43
2022/01/22 00:37:53;;;;;;;;;11.50;7.25;;;;;-1.43;76.92;99966.19;6330595;20;1824263;-42
2022/01/22 00:40:23;;;;;;;;;14.00;7.75;;;;;-1.41;76.54;99956.50;6330724;20;1836877;-42
2022/01/22 00:42:51;;;;;;;;;10.00;5.00;;;;;-1.38;76.86;99953.84;6315577;20;2765877;-43
2022/01/22 00:45:20;;;;;;;;;10.75;4.25;;;;;-1.39;76.98;99954.75;6333149;20;1831640;-44
2022/01/22 00:47:49;;;;;;;;;11.50;5.50;;;;;-1.11;77.43;99948.34;6335079;20;1829590;-43
2022/01/22 00:50:23;;;;;;;;;7.00;7.00;;;;;-1.07;75.98;99946.53;6316635;20;2744035;-43
2022/01/22 00:52:52;;;;;;;;;8.67;4.67;;;;;-0.87;77.94;99941.03;6318591;20;3478340;-42
2022/01/22 00:55:21;;;;;;;;;13.50;7.00;;;;;-1.12;77.45;99936.03;6333572;20;1827430;-42
2022/01/22 00:57:50;;;;;;;;;11.50;7.50;;;;;-1.26;76.93;99932.69;6335335;20;1831638;-43
2022/01/22 01:00:19;;;;;;;;;11.00;7.00;;;;;-1.28;76.50;99928.31;6335231;20;1852422;-44
2022/01/22 01:02:48;;;;;;;;;9.50;8.00;;;;;-1.39;76.17;99925.78;6335056;20;1827392;-43
2022/01/22 01:05:17;;;;;;;;;9.25;7.25;;;;;-1.64;76.43;99915.44;6335262;20;1831575;-43
2022/01/22 01:07:45;;;;;;;;;14.00;7.00;;;;;-1.49;76.26;99914.44;6317566;20;2771124;-43
2022/01/22 01:10:17;;;;;;;;;8.00;5.00;;;;;-1.42;76.68;99913.53;6334105;20;1830569;-42
2022/01/22 01:12:49;;;;;;;;;7.25;5.50;;;;;-1.55;76.53;99903.97;6337157;20;1818106;-43
2022/01/22 01:15:57;;;;;;;;;9.00;4.00;;;;;-1.50;76.67;99907.44;6315239;20;3455529;-43
2022/01/22 01:34:42;;;;;;;;;6.00;6.00;;;;;-0.70;75.37;99869.69;6316935;20;3457551;-43
2022/01/22 01:37:15;;;;;;;;;11.50;5.00;;;;;-0.70;75.06;99867.91;6334091;20;1832727;-43
2022/01/22 01:39:48;;;;;;;;;9.75;6.00;;;;;-0.61;75.12;99861.63;6336579;20;1835346;-42
2022/01/22 01:42:23;;;;;;;;;7.00;7.00;;;;;-0.74;73.70;99852.16;6311960;20;3457537;-43
2022/01/22 01:44:51;;;;;;;;;7.00;1.00;;;;;-0.85;73.19;99833.84;6315915;20;3455449;-43
2022/01/22 01:47:19;;;;;;;;;9.00;7.25;;;;;-0.77;73.44;99826.69;6333441;20;1824352;-45
2022/01/22 01:49:47;;;;;;;;;8.00;5.00;;;;;-0.80;72.58;99826.75;6316372;20;3470074;-47
2022/01/22 01:52:23;;;;;;;;;5.00;5.00;;;;;-0.78;71.97;99814.41;6303249;20;1814874;-47
2022/01/22 01:55:10;;;;;;;;;6.00;5.00;;;;;-0.70;72.18;99806.41;6317033;20;2755475;-44
2022/01/22 01:57:42;;;;;;;;;10.33;8.00;;;;;-0.81;72.70;99809.19;6316172;20;3479576;-43
2022/01/22 02:00:25;;;;;;;;;7.33;4.33;;;;;-0.81;72.05;99819.75;6313437;20;3464896;-46
2022/01/22 02:02:54;;;;;;;;;9.75;4.25;;;;;-0.78;72.07;99811.78;6336910;20;1808731;-42
2022/01/22 02:05:23;;;;;;;;;8.00;6.33;;;;;-0.92;71.88;99798.78;6314078;20;3456454;-43
2022/01/22 02:07:54;;;;;;;;;4.00;4.00;;;;;-0.92;72.29;99779.47;6316759;20;3452336;-42
2022/01/22 02:10:27;;;;;;;;;4.00;4.00;;;;;-0.90;72.29;99782.94;6316938;20;3453400;-43
2022/01/22 02:23:52;;;;;;;;;6.00;6.00;;;;;-0.75;72.47;99776.59;6315276;20;3463833;-42
2022/01/22 02:26:20;;;;;;;;;3.33;3.33;;;;;-0.89;72.30;99763.63;6314729;20;3470121;-42
2022/01/22 02:28:51;;;;;;;;;11.25;5.00;;;;;-0.69;72.95;99765.97;6332196;20;1831586;-42
2022/01/22 02:31:32;;;;;;;;;8.75;4.00;;;;;-0.52;71.37;99755.19;6332472;20;1828437;-42
2022/01/22 02:36:57;;;;;;;;;7.33;4.33;;;;;-0.83;71.64;99754.75;6317367;20;3456525;-42
2022/01/22 02:39:33;;;;;;;;;3.00;3.00;;;;;-0.73;71.35;99748.47;6315891;20;3464811;-43
2022/01/22 02:42:01;;;;;;;;;3.33;3.33;;;;;-0.74;71.94;99747.59;6285101;20;3451288;-45
2022/01/22 02:44:34;;;;;;;;;5.00;4.00;;;;;-0.68;71.48;99736.94;6313405;20;3453477;-43
2022/01/22 02:47:06;;;;;;;;;7.00;5.00;;;;;-0.57;71.25;99738.56;6318680;20;3448208;-42
2022/01/22 02:49:35;;;;;;;;;6.67;3.00;;;;;-0.54;71.99;99730.59;6313148;20;3467947;-42
2022/01/22 02:52:07;;;;;;;;;5.00;5.00;;;;;-0.45;72.31;99720.78;6317104;20;3449398;-45
2022/01/22 02:54:38;;;;;;;;;10.00;10.00;;;;;-0.53;72.83;99719.13;6313662;20;2774364;-43
2022/01/22 02:57:10;;;;;;;;;7.00;5.00;;;;;-0.48;73.38;99718.16;6278931;20;3464810;-44
2022/01/22 02:59:38;;;;;;;;;5.00;5.00;;;;;-0.57;74.03;99712.19;6311303;20;3461778;-44
2022/01/22 03:02:08;;;;;;;;;12.00;12.00;;;;;-0.42;76.10;99701.41;6309181;20;2781503;-43
2022/01/22 03:04:36;;;;;;;;;13.67;8.33;;;;;-0.58;77.08;99699.88;6278564;20;3488785;-43
2022/01/22 03:07:04;;;;;;;;;14.00;10.00;;;;;-0.33;76.58;99690.66;6277353;20;3524220;-43
2022/01/22 03:09:40;;;;;;;;;4.33;4.00;;;;;-0.26;79.39;99692.31;6282677;20;3451265;-45
2022/01/22 03:17:47;;;;;;;;;2.00;2.00;;;;;-0.35;78.08;99686.31;6314765;20;3458709;-42
2022/01/22 03:23:06;;;;;;;;;6.75;4.00;;;;;-0.58;76.93;99668.25;6334944;20;1819020;-42
2022/01/22 03:28:22;;;;;;;;;7.00;4.00;;;;;-0.55;77.31;99647.97;6314456;20;3472095;-43
2022/01/22 03:30:52;;;;;;;;;6.50;2.50;;;;;-0.64;77.78;99648.13;6302176;20;1825191;-44
2022/01/22 03:33:22;;;;;;;;;8.00;5.00;;;;;-0.64;78.07;99663.06;6313541;20;3470204;-44
2022/01/22 03:35:55;;;;;;;;;6.00;3.00;;;;;-0.68;77.03;99667.53;6281150;20;2754448;-42
2022/01/22 03:38:24;;;;;;;;;4.00;2.00;;;;;-0.61;77.44;99658.59;6313236;20;3466892;-44
2022/01/22 03:40:52;;;;;;;;;4.00;4.00;;;;;-0.68;76.37;99671.03;6316500;20;3457541;-43
2022/01/22 03:43:22;;;;;;;;;6.50;3.50;;;;;-0.61;75.72;99663.88;6331845;20;1824986;-42
2022/01/22 03:45:50;;;;;;;;;9.67;3.33;;;;;-0.49;75.62;99665.47;6311191;20;3496105;-42
2022/01/22 03:48:18;;;;;;;;;5.00;4.00;;;;;-0.29;77.13;99663.34;6315853;20;2742124;-42
2022/01/22 03:50:49;;;;;;;;;3.00;3.00;;;;;-0.35;75.70;99660.81;6330286;20;1825017;-43
2022/01/22 03:53:18;;;;;;;;;1.50;1.50;;;;;-0.44;75.52;99653.06;6333232;20;1811693;-43
2022/01/22 03:55:58;;;;;;;;;5.00;2.00;;;;;-0.67;75.61;99658.72;6312166;20;3458649;-42
2022/01/22 03:58:26;;;;;;;;;4.00;4.00;;;;;-0.52;76.61;99641.78;6314709;20;3459683;-44
2022/01/22 04:01:17;;;;;;;;;5.75;2.00;;;;;-0.33;75.41;99637.91;6330803;20;1825328;-42
2022/01/22 04:03:52;;;;;;;;;4.00;2.00;;;;;-0.19;76.13;99628.88;6312146;20;3484624;-43
2022/01/22 04:08:53;;;;;;;;;3.33;0.33;;;;;0.04;75.08;99621.38;6315732;20;3438856;-43
2022/01/22 04:11:21;;;;;;;;;4.00;4.00;;;;;-0.10;74.83;99612.88;6315413;20;3471195;-43
2022/01/22 04:13:52;;;;;;;;;4.00;4.00;;;;;-0.18;75.14;99620.94;6314083;20;3433619;-43
2022/01/22 04:16:21;;;;;;;;;4.33;4.33;;;;;-0.39;75.56;99611.66;6310145;20;3471140;-43
2022/01/22 04:27:15;;;;;;;;;5.33;4.00;;;;;-0.21;76.68;99613.09;6321410;20;3450270;-44
2022/01/22 04:29:43;;;;;;;;;7.33;5.67;;;;;-0.39;77.42;99610.78;6318580;20;3465889;-47
2022/01/22 04:32:10;;;;;;;;;7.00;4.00;;;;;-0.33;78.60;99611.53;6286713;20;3466917;-42
2022/01/22 04:34:38;;;;;;;;;5.00;5.00;;;;;-0.04;80.08;99618.03;6316579;20;3462930;-44
2022/01/22 04:37:06;;;;;;;;;2.00;2.00;;;;;-0.25;80.38;99606.13;6318053;20;3463804;-42
2022/01/22 04:39:36;;;;;;;;;5.00;2.00;;;;;-0.20;82.06;99611.31;6286424;20;3456590;-43
2022/01/22 04:42:04;;;;;;;;;7.00;4.67;;;;;-0.34;82.81;99612.44;6316806;20;3450250;-43
2022/01/22 04:44:38;;;;;;;;;5.00;5.00;;;;;-0.41;84.74;99608.16;6315301;20;3459722;-43
2022/01/22 04:52:40;;;;;;;;;8.33;7.00;;;;;-0.69;87.99;99608.66;6315983;20;3476290;-43
2022/01/22 04:55:10;;;;;;;;;8.75;7.00;;;;;-0.82;89.35;99601.84;6333864;20;1831597;-44
2022/01/22 04:57:45;;;;;;;;;9.25;7.00;;;;;-0.72;89.97;99600.78;6331212;20;1833606;-43
2022/01/22 05:00:17;;;;;;;;;7.00;6.00;;;;;-1.03;92.27;99604.84;6336159;20;1824281;-44
2022/01/22 05:02:45;;;;;;;;;18.50;9.00;;;;;-1.19;94.00;99601.56;6316076;20;2789861;-43
2022/01/22 05:05:13;;;;;;;;;7.00;4.00;;;;;-1.18;95.18;99603.34;6334171;20;1825276;-45
2022/01/22 05:07:42;;;;;;;;;6.25;4.00;;;;;-1.18;95.59;99598.06;6336087;20;1828493;-43
2022/01/22 05:10:11;;;;;;;;;9.50;8.75;;;;;-1.24;96.19;99599.00;6334162;20;1809653;-42
2022/01/22 05:12:39;;;;;;;;;7.00;6.00;;;;;-1.37;97.10;99597.44;6317190;20;3467916;-42
2022/01/22 05:15:09;;;;;;;;;7.50;6.75;;;;;-1.44;97.54;99595.81;6300901;20;1821285;-42
2022/01/22 05:17:41;;;;;;;;;12.25;10.00;;;;;-1.39;97.73;99593.97;6331699;20;1838435;-42
2022/01/22 05:20:29;;;;;;;;;8.25;7.00;;;;;-1.29;98.89;99600.84;6334143;20;1825361;-44
2022/01/22 05:23:07;;;;;;;;;7.00;7.00;;;;;-1.44;99.43;99595.81;6315188;20;3468176;-46
2022/01/22 05:25:40;;;;;;;;;12.00;10.00;;;;;-1.24;99.56;99606.91;6315316;20;2778554;-43
2022/01/22 05:30:56;;;;;;;;;7.00;2.00;;;;;-1.41;99.36;99608.94;6286577;20;3446052;-44
2022/01/22 05:39:11;;;;;;;;;8.50;7.00;;;;;-1.21;100.00;99613.88;6335822;20;1823211;-43
2022/01/22 05:41:41;;;;;;;;;8.00;6.00;;;;;-1.43;99.34;99613.34;6334203;20;1821191;-43
2022/01/22 05:44:09;;;;;;;;;6.75;5.00;;;;;-1.27;98.74;99617.47;6332200;20;1825092;-42
2022/01/22 05:46:37;;;;;;;;;8.00;5.00;;;;;-1.30;98.65;99614.03;6316631;20;2759761;-42
2022/01/22 05:49:05;;;;;;;;;7.67;5.67;;;;;-1.52;98.96;99600.31;6317105;20;3467996;-42
2022/01/22 05:51:35;;;;;;;;;6.00;5.00;;;;;-1.33;98.23;99599.16;6286529;20;3463804;-44
2022/01/22 05:59:39;;;;;;;;;12.00;10.00;;;;;-1.42;98.32;99591.38;6316803;20;2784702;-42
2022/01/22 06:02:15;;;;;;;;;11.00;11.00;;;;;-1.26;98.07;99595.53;6286084;20;2662756;-43
2022/01/22 06:04:45;;;;;;;;;14.00;10.00;;;;;-1.46;98.25;99602.84;6315453;20;2769006;-42
2022/01/22 06:07:14;;;;;;;;;11.00;8.00;;;;;-1.18;98.87;99604.19;6337875;20;1826325;-43
2022/01/22 06:10:04;;;;;;;;;15.00;12.00;;;;;-1.24;98.40;99611.31;6314836;20;2796153;-43
2022/01/22 06:15:00;;;;;;;;;13.50;10.00;;;;;-1.28;97.89;99613.13;6313167;20;2772202;-43
2022/01/22 06:17:28;;;;;;;;;12.50;12.00;;;;;-1.26;98.21;99615.72;6282792;20;2773295;-42
2022/01/22 06:19:55;;;;;;;;;16.00;10.00;;;;;-1.37;98.16;99614.13;6284225;20;2763913;-43
2022/01/22 06:22:23;;;;;;;;;15.00;12.00;;;;;-1.29;98.13;99621.03;6283831;20;2785729;-43
2022/01/22 06:24:55;;;;;;;;;16.43;10.71;;;;;-1.35;98.31;99624.63;6318139;20;1821200;-43
2022/01/22 06:27:24;;;;;;;;;17.00;16.00;;;;;-1.34;98.29;99619.34;6315074;20;2814894;-43
2022/01/22 06:29:52;;;;;;;;;7.67;7.67;;;;;-1.27;97.96;99630.66;6316553;20;3470186;-45
2022/01/22 06:32:20;;;;;;;;;13.67;13.67;;;;;-1.34;97.95;99629.88;6336685;20;1841058;-44
2022/01/22 06:34:49;;;;;;;;;15.00;10.50;;;;;-1.33;98.67;99641.28;6329933;20;1826374;-44
2022/01/22 06:37:17;;;;;;;;;14.00;10.00;;;;;-1.51;98.62;99638.91;6313150;20;2784006;-43
2022/01/22 06:42:40;;;;;;;;;23.67;17.67;;;;;-1.48;99.01;99647.63;6311021;20;3557550;-43
2022/01/22 06:45:09;;;;;;;;;21.67;20.33;;;;;-1.68;99.62;99645.25;6312091;20;3552448;-43
2022/01/22 06:47:37;;;;;;;;;11.00;8.00;;;;;-1.58;99.84;99636.38;6313210;20;2761748;-42
2022/01/22 06:50:08;;;;;;;;;12.50;8.00;;;;;-1.79;100.00;99636.59;6332730;20;1812872;-42
2022/01/22 06:52:37;;;;;;;;;14.50;11.00;;;;;-1.73;100.00;99651.47;6313794;20;2789797;-43
2022/01/22 06:55:07;;;;;;;;;10.00;10.00;;;;;-1.53;100.00;99654.72;6278828;20;2774351;-43
2022/01/22 06:57:35;;;;;;;;;19.00;14.00;;;;;-1.50;100.00;99666.97;6310601;20;2820216;-45
2022/01/22 07:00:06;;;;;;;;;24.00;15.00;;;;;-1.71;100.00;99671.63;6283633;20;2827525;-43
2022/01/22 07:02:35;;;;;;;;;18.00;16.67;;;;;-1.70;100.00;99678.63;6276005;20;3560687;-42
2022/01/22 07:05:04;;;;;;;;;24.00;17.33;;;;;-1.94;100.00;99669.25;6313063;20;3550272;-44
2022/01/22 07:07:35;;;;;;;;;24.33;20.33;;;;;-1.88;100.00;99666.53;6315186;20;2817466;-42
2022/01/22 07:10:04;;;;;;;;;24.00;18.00;;;;;-1.81;100.00;99670.00;6316614;20;3569050;-45
2022/01/22 07:12:33;;;;;;;;;18.00;16.00;;;;;-1.91;100.00;99668.34;6313265;20;3556614;-41
2022/01/22 07:15:03;;;;;;;;;15.00;13.00;;;;;-1.53;100.00;99682.81;6311759;20;2801593;-43
2022/01/22 07:17:37;;;;;;;;;27.33;16.00;;;;;-1.48;100.00;99684.47;6304678;20;2837902;-42
2022/01/22 07:20:18;;;;;;;;;20.67;18.33;;;;;-1.34;100.00;99689.59;6314889;20;3570036;-42
2022/01/22 07:22:52;;;;;;;;;21.00;17.00;;;;;-1.44;100.00;99682.69;6313260;20;2829409;-42
2022/01/22 07:25:20;;;;;;;;;24.67;20.67;;;;;-1.49;100.00;99680.13;6282635;20;3553400;-42
2022/01/22 07:27:50;;;;;;;;;21.00;18.33;;;;;-1.38;100.00;99691.38;6312489;20;3558588;-41
2022/01/22 07:30:18;;;;;;;;;23.00;20.00;;;;;-1.44;100.00;99696.72;6312560;20;2821073;-42
2022/01/22 07:32:47;;;;;;;;;25.50;25.50;;;;;-1.20;99.87;99703.44;6279350;20;2836825;-42
2022/01/22 07:35:18;;;;;;;;;20.00;19.67;;;;;-1.06;99.63;99702.38;6277986;20;3568965;-42
2022/01/22 07:37:47;;;;;;;;;68.00;46.00;;;;;-1.00;98.25;99707.53;6310032;20;2893068;-42
2022/01/22 07:40:16;;;;;;;;;35.67;32.67;;;;;-0.85;97.71;99694.16;6285624;20;3602289;-42
2022/01/22 07:42:44;;;;;;;;;53.50;42.50;;;;;-0.75;96.70;99708.94;6311311;20;2879384;-42
2022/01/22 07:45:13;;;;;;;;;22.67;20.67;;;;;-0.63;96.86;99717.53;6277246;20;3555518;-44
2022/01/22 07:47:42;;;;;;;;;19.67;16.00;;;;;-0.52;96.11;99720.91;6312069;20;3557793;-46
2022/01/22 07:50:10;;;;;;;;;24.00;21.00;;;;;-0.91;97.50;99728.50;6313450;20;2833556;-43
2022/01/22 07:52:39;;;;;;;;;19.67;13.33;;;;;-0.44;96.65;99734.81;6289392;20;2813909;-42
2022/01/22 07:55:07;;;;;;;;;14.00;11.00;;;;;-0.46;94.91;99741.88;6320084;20;2673190;-46
2022/01/22 07:57:35;;;;;;;;;15.50;15.50;;;;;-0.70;96.01;99736.09;6318061;20;2819059;-42
2022/01/22 08:00:06;;;;;;;;;20.33;18.00;;;;;-0.81;97.80;99738.03;6288841;20;3559631;-43
2022/01/22 08:02:34;;;;;;;;;9.00;9.00;;;;;-0.80;99.06;99741.53;6319870;20;2745171;-43
2022/01/22 08:05:03;;;;;;;;;10.00;10.00;;;;;-0.60;98.69;99750.03;6315273;20;2790003;-46
2022/01/22 08:07:31;;;;;;;;;10.67;10.67;;;;;-0.17;97.72;99748.44;6284597;20;3498295;-43
2022/01/22 08:10:02;;;;;;;;;18.00;14.60;;;;;0.16;94.88;99745.22;6311761;20;2825309;-44
2022/01/22 08:12:33;;;;;;;;;13.17;13.00;;;;;-0.34;95.48;99739.06;6326879;20;1830089;-42
2022/01/22 08:15:02;;;;;;;;;12.00;10.00;;;;;0.14;93.48;99749.66;6286615;20;2781719;-40
2022/01/22 08:17:33;;;;;;;;;12.83;10.67;;;;;-0.27;92.14;99753.88;6330317;20;1812850;-42
2022/01/22 08:20:03;;;;;;;;;16.75;10.50;;;;;0.14;92.65;99759.34;6309463;20;1824260;-45
2022/01/22 08:22:30;;;;;;;;;17.00;15.50;;;;;-0.28;93.63;99767.97;6320657;20;2800313;-42
2022/01/22 08:25:00;;;;;;;;;11.00;11.00;;;;;-0.38;93.44;99766.38;6291486;20;2787729;-43
2022/01/22 08:29:57;;;;;;;;;11.00;8.50;;;;;0.13;93.40;99761.13;6290391;20;2765915;-42
2022/01/22 08:37:44;;;;;;;;;20.40;17.20;;;;;0.22;92.02;99758.31;6308921;20;2822196;-43
2022/01/22 08:40:13;;;;;;;;;11.25;8.50;;;;;0.40;89.92;99761.50;6309048;20;1828156;-43
2022/01/22 08:42:41;;;;;;;;;16.00;13.00;;;;;0.06;90.35;99771.81;6319103;20;2808781;-42
2022/01/22 08:45:10;;;;;;;;;31.50;30.00;;;;;0.49;89.41;99774.53;6285463;20;2498137;-42
2022/01/22 08:47:38;;;;;;;;;16.00;11.50;;;;;0.49;88.71;99777.16;6290748;20;2796075;-43
2022/01/22 08:50:07;;;;;;;;;32.50;26.00;;;;;0.72;88.11;99784.66;6286533;20;2847224;-42
2022/01/22 08:52:36;;;;;;;;;23.00;14.50;;;;;0.32;88.60;99779.28;6288917;20;2828383;-42
2022/01/22 08:55:07;;;;;;;;;19.00;17.00;;;;;0.62;88.05;99783.94;6287201;20;2833559;-43
2022/01/22 08:57:36;;;;;;;;;16.50;14.00;;;;;0.63;86.42;99785.72;6321243;20;2803426;-43
2022/01/22 09:00:08;;;;;;;;;16.80;14.60;;;;;0.82;85.61;99788.00;6313307;20;2823162;-42
2022/01/22 09:02:37;;;;;;;;;28.00;20.67;;;;;0.85;85.33;99785.28;6287791;20;3549176;-42
2022/01/22 09:05:06;;;;;;;;;22.67;17.00;;;;;0.95;86.04;99794.75;6285120;20;2825250;-42
2022/01/22 09:07:34;;;;;;;;;14.50;12.50;;;;;1.20;84.20;99786.28;6318406;20;2797538;-44
2022/01/22 09:10:04;;;;;;;;;17.67;15.00;;;;;1.25;83.48;99789.72;6289066;20;3554440;-43
2022/01/22 09:12:33;;;;;;;;;14.50;13.00;;;;;1.03;83.22;99795.47;6321929;20;2797191;-43
2022/01/22 09:15:05;;;;;;;;;17.60;11.00;;;;;1.33;81.74;99798.34;6310495;20;2792154;-42
2022/01/22 09:17:35;;;;;;;;;15.00;15.00;;;;;1.30;82.14;99803.72;6313190;20;2810853;-42
2022/01/22 09:20:09;;;;;;;;;18.50;13.00;;;;;1.42;80.64;99803.44;6289416;20;2800675;-43
2022/01/22 09:22:37;;;;;;;;;17.00;15.00;;;;;1.57;80.82;99804.00;6289486;20;2819044;-44
2022/01/22 09:25:07;;;;;;;;;12.00;10.75;;;;;1.65;79.93;99809.97;6305974;20;1830284;-43
2022/01/22 09:27:35;;;;;;;;;15.00;12.00;;;;;1.73;80.00;99810.66;6318709;20;2819000;-43
2022/01/22 09:30:05;;;;;;;;;13.00;12.00;;;;;1.58;78.51;99809.25;6289927;20;2796105;-44
2022/01/22 09:32:32;;;;;;;;;5.00;5.00;;;;;1.86;77.78;99819.19;6292512;20;3461847;-44
2022/01/22 09:35:00;;;;;;;;;9.00;8.00;;;;;1.82;76.49;99812.22;6319893;20;2739981;-44
2022/01/22 09:37:29;;;;;;;;;31.00;27.50;;;;;2.01;76.31;99817.94;6317137;20;2849240;-43
2022/01/22 09:39:57;;;;;;;;;9.00;9.00;;;;;2.33;74.95;99825.94;6286602;20;2750231;-43
2022/01/22 09:42:51;;;;;;;;;30.00;30.00;;;;;1.82;73.60;99823.69;6300620;20;1847247;-43
2022/01/22 09:45:22;;;;;;;;;6.75;6.50;;;;;2.14;72.89;99822.91;6335572;20;1816011;-43
2022/01/22 09:47:50;;;;;;;;;13.50;12.00;;;;;2.09;72.87;99822.16;6319975;20;2791314;-43
2022/01/22 09:50:23;;;;;;;;;11.50;10.00;;;;;2.34;71.97;99821.50;6290473;20;2765951;-43
2022/01/22 09:52:53;;;;;;;;;7.50;5.25;;;;;2.27;70.53;99815.53;6335976;20;1821190;-43
2022/01/22 09:55:22;;;;;;;;;22.67;21.67;;;;;2.27;70.20;99826.13;6316030;20;2829381;-42
2022/01/22 09:57:53;;;;;;;;;9.00;8.00;;;;;1.96;70.92;99820.72;6322276;20;2759590;-45
2022/01/22 10:00:22;;;;;;;;;8.00;7.50;;;;;2.37;69.78;99824.06;6322527;20;2745117;-43
2022/01/22 10:02:57;;;;;;;;;21.67;18.67;;;;;2.28;69.13;99832.28;6318780;20;3565926;-44
2022/01/22 10:05:39;;;;;;;;;8.50;8.50;;;;;2.29;68.59;99834.91;6340075;20;1807520;-42
2022/01/22 10:08:24;;;;;;;;;9.00;8.00;;;;;2.42;68.28;99843.38;6337368;20;1817694;-44
2022/01/22 10:10:53;;;;;;;;;9.25;9.25;;;;;2.44;67.38;99841.56;6337741;20;1813244;-44
2022/01/22 10:13:37;;;;;;;;;11.00;9.50;;;;;2.78;66.87;99846.84;6319340;20;2773264;-48
2022/01/22 10:16:39;;;;;;;;;11.25;6.00;;;;;2.54;66.25;99842.19;6305926;20;1819048;-46
2022/01/22 10:19:24;;;;;;;;;6.25;6.00;;;;;2.39;65.55;99839.03;6335693;20;1819204;-50
2022/01/22 10:21:59;;;;;;;;;7.75;6.00;;;;;2.72;66.01;99844.38;6336859;20;1817998;-45
2022/01/22 10:24:41;;;;;;;;;10.00;8.00;;;;;2.86;65.06;99850.16;6317443;20;2754812;-44
2022/01/22 10:27:32;;;;;;;;;6.50;6.00;;;;;2.40;65.38;99843.44;6306813;20;1821191;-44
2022/01/22 10:30:16;;;;;;;;;8.00;8.00;;;;;2.87;63.75;99840.44;6322304;20;2736726;-43
2022/01/22 10:32:51;;;;;;;;;8.50;6.00;;;;;2.88;65.41;99839.50;6322521;20;2746526;-44
2022/01/22 10:35:27;;;;;;;;;6.00;6.00;;;;;2.84;64.17;99838.75;6334224;20;1819081;-44
2022/01/22 10:38:18;;;;;;;;;9.25;8.00;;;;;2.89;64.17;99835.06;6336574;20;1814954;-44
2022/01/22 10:40:56;;;;;;;;;9.43;5.14;;;;;2.79;63.19;99835.34;6361352;20;1806549;-49
2022/01/22 10:43:35;;;;;;;;;13.00;11.00;;;;;3.08;63.48;99847.78;6318719;20;2786741;-44
2022/01/22 10:46:20;;;;;;;;;27.00;24.50;;;;;2.96;63.16;99852.56;6284570;20;2500392;-44
2022/01/22 10:49:16;;;;;;;;;8.75;5.75;;;;;3.07;62.06;99850.47;6331466;20;2574225;-44
2022/01/22 10:52:07;;;;;;;;;48.00;44.50;;;;;2.63;60.59;99847.25;6282854;20;2502300;-43
2022/01/22 10:54:38;;;;;;;;;34.50;30.50;;;;;3.16;59.40;99850.22;6286410;20;2848133;-44
2022/01/22 10:57:15;;;;;;;;;29.00;25.00;;;;;2.76;58.76;99850.44;6287407;20;2843960;-44
2022/01/22 10:59:52;;;;;;;;;36.00;33.00;;;;;3.08;59.66;99850.44;6285893;20;2852388;-43
2022/01/22 11:02:50;;;;;;;;;19.50;16.50;;;;;3.20;59.08;99862.47;6286792;20;2820018;-45
2022/01/22 11:05:38;;;;;;;;;13.00;11.00;;;;;3.55;60.92;99868.53;6281226;20;2782679;-45
2022/01/22 11:08:13;;;;;;;;;12.50;12.00;;;;;3.19;58.16;99871.34;6285122;20;2811698;-43
2022/01/22 11:10:45;;;;;;;;;10.50;9.50;;;;;3.32;58.00;99865.66;6291613;20;2766910;-45
2022/01/22 11:13:13;;;;;;;;;5.00;5.00;;;;;3.21;59.37;99868.63;6287849;20;2750312;-46
2022/01/22 11:15:44;;;;;;;;;17.33;15.67;;;;;3.30;58.42;99869.25;6318304;20;2821184;-44
2022/01/22 11:18:13;;;;;;;;;7.75;7.75;;;;;3.56;55.80;99872.94;6333537;20;1819080;-43
2022/01/22 11:20:42;;;;;;;;;5.25;5.25;;;;;3.41;54.45;99873.38;6331519;20;1819049;-42
2022/01/22 11:23:10;;;;;;;;;5.50;5.50;;;;;3.40;54.26;99869.88;6335014;20;1817819;-46
2022/01/22 11:25:42;;;;;;;;;17.33;15.67;;;;;3.51;56.63;99861.59;6311114;20;2809647;-46
2022/01/22 11:28:13;;;;;;;;;9.75;3.00;;;;;3.10;56.63;99860.13;6332702;20;1818673;-43
2022/01/22 11:30:47;;;;;;;;;6.50;6.50;;;;;3.57;56.14;99861.38;6334317;20;1810717;-43
2022/01/22 11:33:19;;;;;;;;;7.00;7.00;;;;;3.74;54.14;99859.09;6318485;20;2743979;-42
2022/01/22 11:36:04;;;;;;;;;14.60;10.40;;;;;3.58;53.83;99863.16;6342366;20;2782017;-43
2022/01/22 11:38:41;;;;;;;;;19.00;14.00;;;;;3.61;53.54;99876.31;6282741;20;3540975;-44
2022/01/22 11:41:15;;;;;;;;;18.80;15.40;;;;;3.46;53.86;99874.97;6339594;20;2804411;-42
2022/01/22 11:44:15;;;;;;;;;15.00;12.50;;;;;3.47;54.78;99881.16;6285037;20;2796220;-44
2022/01/22 11:46:59;;;;;;;;;4.33;4.33;;;;;3.68;54.68;99867.22;6330980;20;1799265;-43
2022/01/22 11:49:30;;;;;;;;;27.00;21.00;;;;;3.69;54.95;99876.97;6286178;20;3591886;-42
2022/01/22 11:52:12;;;;;;;;;11.50;11.50;;;;;3.74;55.60;99877.69;6283905;20;2785732;-45
2022/01/22 11:55:11;;;;;;;;;14.00;13.33;;;;;3.94;54.31;99876.19;6283677;20;2795075;-43
2022/01/22 11:57:44;;;;;;;;;31.00;23.50;;;;;3.60;54.94;99882.53;6317265;20;2827293;-46
2022/01/22 12:00:29;;;;;;;;;21.67;15.33;;;;;3.72;54.06;99876.84;6285191;20;2813990;-45
2022/01/22 12:03:08;;;;;;;;;9.00;9.00;;;;;3.76;53.39;99876.75;6321922;20;2735847;-45
2022/01/22 12:05:58;;;;;;;;;10.00;9.50;;;;;3.67;51.71;99894.72;6318788;20;2762067;-44
2022/01/22 12:08:26;;;;;;;;;21.33;11.00;;;;;3.64;53.63;99899.25;6282782;20;2817029;-45
2022/01/22 12:14:28;;;;;;;;;21.00;15.50;;;;;3.63;50.36;99902.81;6314289;20;2500372;-44
2022/01/22 12:16:45;;;;;;;;;9.25;4.00;;;;;3.59;47.59;99910.00;6303631;20;1819010;-44
2022/01/22 12:20:04;;;;;;;;;11.50;10.00;;;;;3.80;47.58;99910.28;6345261;20;2775296;-45
2022/01/22 12:22:35;;;;;;;;;5.00;5.00;;;;;3.74;46.56;99903.38;6301957;20;1823267;-45
2022/01/22 12:25:09;;;;;;;;;14.00;10.00;;;;;3.65;46.21;99901.84;6355802;20;1812744;-48
2022/01/22 12:27:52;;;;;;;;;10.50;5.00;;;;;3.71;45.43;99906.09;6318011;20;2765885;-47
2022/01/22 12:30:44;;;;;;;;;5.25;3.50;;;;;3.61;45.95;99897.56;6305085;20;1816711;-46
2022/01/22 12:33:27;;;;;;;;;5.25;1.00;;;;;3.47;45.52;99889.13;6337870;20;1808012;-45
2022/01/22 12:36:26;;;;;;;;;9.40;9.00;;;;;3.41;45.82;99897.25;6341196;20;2750367;-47
2022/01/22 12:39:16;;;;;;;;;8.00;5.50;;;;;3.44;45.17;99911.31;6337225;20;1827412;-51
2022/01/22 12:41:55;;;;;;;;;9.00;7.00;;;;;3.52;45.84;99905.78;6321479;20;2741938;-49
2022/01/22 12:44:32;;;;;;;;;5.00;2.75;;;;;3.46;46.15;99917.44;6339212;20;1819045;-44
2022/01/22 12:47:11;;;;;;;;;7.75;4.50;;;;;3.46;46.28;99919.25;6341937;20;1820903;-46
2022/01/22 12:49:43;;;;;;;;;12.80;11.60;;;;;3.56;47.22;99927.81;6342155;20;2785699;-48
2022/01/22 12:52:14;;;;;;;;;14.00;13.00;;;;;3.45;48.39;99921.03;6290744;20;2787742;-48
2022/01/22 12:54:48;;;;;;;;;20.33;13.00;;;;;3.62;47.66;99911.69;6287202;20;3532533;-45
2022/01/22 12:57:24;;;;;;;;;3.75;3.75;;;;;3.30;47.70;99906.41;6337335;20;1823194;-46
2022/01/22 13:00:11;;;;;;;;;13.50;10.00;;;;;3.37;46.88;99901.81;6318399;20;2789825;-47
2022/01/22 13:02:51;;;;;;;;;12.00;9.00;;;;;3.48;46.84;99909.47;6291430;20;2757510;-47
2022/01/22 13:05:22;;;;;;;;;7.50;3.75;;;;;3.41;44.93;99902.56;6309691;20;1825424;-45
2022/01/22 13:08:00;;;;;;;;;8.00;4.00;;;;;3.32;45.22;99916.09;6323429;20;2740877;-49
2022/01/22 13:10:34;;;;;;;;;4.67;4.50;;;;;3.55;45.96;99940.19;6362784;20;1804461;-45